Date,TemperatureHighF,TemperatureAvgF,TemperatureLowF,DewpointHighF,DewpointAvgF,DewpointLowF,HumidityHigh,HumidityAvg,HumidityLow,PressureMaxIn,PressureMinIn,WindSpeedMaxMPH,WindSpeedAvgMPH,GustSpeedMaxMPH,PrecipitationSumIn
2013-1-1,40,33,0,35,30,0,98,90,71,30.56,30.41,6,2,6,0.23
2013-1-2,46,32,24,36,27,22,98,83,54,30.41,30.27,4,1,4,0.08
2013-1-3,43,33,19,36,27,18,98,81,50,30.27,30.18,18,2,18,0.13
2013-1-4,47,41,37,43,38,36,98,91,77,30.41,30.27,6,1,7,24.13
2013-1-5,40,37,34,37,33,29,98,86,67,30.27,30.18,6,1,6,24.13
2013-1-7,51,46,0,49,45,0,98,95,82,30.30,30.03,11,3,11,0.13
2013-1-8,50,48,0,49,48,0,98,97,98,30.12,29.94,15,5,15,0.37
2013-1-9,38,38,37,38,37,36,98,97,96,29.91,29.82,6,1,6,0.09
2013-1-10,42,35,0,39,34,0,98,93,73,30.18,30.12,6,1,6,25.95
2013-1-11,40,32,24,34,22,15,98,70,41,30.39,0.00,12,3,12,25.95
2013-1-12,38,28,0,30,22,0,98,78,48,30.50,30.41,11,2,11,0.00
2013-1-13,38,25,17,31,20,15,98,83,48,30.56,30.47,8,1,8,0.00
2013-1-14,32,28,20,31,27,18,98,96,89,30.65,30.53,7,2,7,0.00
2013-1-15,36,33,29,33,32,28,98,95,88,30.77,30.71,8,2,8,0.04
2013-1-16,34,31,30,33,31,30,98,98,97,30.74,0.00,6,2,6,0.04
2013-1-17,34,31,0,34,30,0,98,96,92,30.53,30.39,5,1,5,0.00
2013-1-18,53,35,24,39,30,24,98,85,51,30.39,30.30,5,1,5,0.00
2013-1-19,36,32,28,34,31,28,98,95,87,30.44,30.36,7,2,8,0.00
2013-1-20,36,32,28,33,30,27,98,95,84,30.47,30.30,7,2,7,25.99
2013-1-21,48,33,24,32,26,23,97,78,50,30.27,30.18,4,1,4,25.99
2013-1-22,43,34,22,32,27,21,98,76,49,30.18,29.97,3,1,20,0.00
2013-1-23,36,35,33,36,32,26,98,90,73,30.21,29.94,6,2,6,0.13
2013-1-24,47,40,32,41,37,32,98,88,66,30.30,30.12,10,2,10,0.13
2013-1-25,54,44,0,48,39,0,98,86,59,30.15,30.00,10,3,10,0.04
2013-1-26,47,41,36,44,38,35,98,88,66,30.09,30.00,8,2,8,0.04
2013-1-27,38,37,36,37,36,36,98,98,98,30.12,30.09,5,2,5,0.05
2013-1-29,49,45,42,46,43,40,98,93,76,30.50,30.33,12,2,12,27.24
2013-1-30,47,46,43,47,45,42,98,98,98,30.50,30.47,4,1,4,27.24
2013-2-1,55,46,39,48,41,36,98,84,53,30.50,30.41,11,2,11,0.38
2013-2-3,46,43,38,45,41,37,98,95,84,30.41,30.33,6,1,6,0.00
2013-2-4,54,47,40,45,40,35,98,78,52,30.30,30.00,8,2,8,0.00
2013-2-5,53,45,40,46,41,37,98,87,60,30.06,29.94,15,4,15,0.37
2013-2-6,47,44,40,43,41,38,98,90,73,30.18,29.88,15,3,15,0.37
2013-2-11,44,43,42,40,39,37,90,85,80,30.44,30.44,6,2,6,0.00
2013-2-12,53,48,42,47,43,40,98,83,66,30.53,30.44,11,3,11,0.00
2013-2-13,51,46,36,41,36,33,93,69,54,30.56,30.50,7,2,7,0.00
2013-2-15,58,48,36,44,40,35,98,76,48,30.56,30.30,11,4,11,28.61
2013-2-17,50,44,39,40,35,30,98,71,54,30.36,0.00,8,2,8,28.61
2013-2-18,41,38,34,36,32,28,98,78,63,30.09,29.85,11,2,72,0.00
2013-2-19,54,43,34,41,32,26,98,70,38,30.03,29.82,15,4,15,0.00
2013-2-20,47,40,32,42,36,31,98,86,60,30.18,30.06,12,2,12,28.81
2013-2-21,41,40,0,40,39,0,98,96,98,30.24,30.15,8,3,8,28.81
2013-2-22,47,40,0,46,38,0,98,93,73,30.03,29.88,21,5,21,1.21
2013-2-23,50,42,33,41,33,27,98,74,43,30.47,30.27,18,3,18,1.21
2013-2-24,48,44,37,36,32,30,98,64,52,30.44,30.18,15,5,15,0.00
2013-2-25,50,41,0,39,33,0,98,75,47,30.41,30.18,18,3,18,0.42
2013-2-26,51,41,0,41,31,0,98,69,46,30.47,30.30,15,4,15,0.42
2013-2-27,43,42,42,42,40,38,95,90,87,30.33,30.33,3,1,3,0.00
2013-2-28,53,51,0,52,49,0,98,93,90,30.47,30.30,12,3,12,0.04
2013-3-1,60,54,50,52,49,45,98,84,63,30.53,0.00,12,4,12,0.04
2013-3-2,44,41,38,39,36,34,94,85,80,30.33,30.27,13,3,13,0.00
2013-3-3,55,45,34,37,30,24,96,59,36,30.39,30.30,19,4,19,0.00
2013-3-4,60,47,0,31,26,0,83,46,25,30.27,30.00,13,3,13,0.00
2013-3-5,48,44,0,39,36,0,96,73,64,29.94,29.82,5,2,5,0.17
2013-3-6,0,0,0,0,0,0,0,0,100,29.85,29.65,7,2,7,0.16
2013-3-9,37,32,0,34,30,0,95,84,88,30.59,30.53,4,2,4,0.16
2013-3-10,47,43,35,42,40,34,98,91,78,30.59,30.50,4,1,4,0.04
2013-3-11,56,49,0,47,44,0,98,81,59,30.50,30.30,11,2,11,0.04
2013-3-12,54,51,49,49,47,44,94,84,75,30.30,30.21,13,4,13,0.04
2013-3-14,58,51,47,52,44,36,98,77,53,30.27,30.18,15,3,15,0.05
2013-3-15,62,55,46,53,42,38,98,64,44,30.33,30.24,13,4,13,0.05
2013-3-17,52,42,34,39,33,28,98,73,44,30.39,30.30,14,3,14,0.05
2013-3-18,59,45,0,44,32,0,98,64,34,30.36,30.27,11,3,11,0.08
2013-3-19,50,44,32,44,37,30,98,78,48,30.15,29.79,8,1,8,0.12
2013-3-20,50,45,35,46,39,32,92,79,69,30.09,29.59,18,5,18,0.29
2013-3-21,53,42,32,42,32,23,98,69,37,30.36,30.27,20,4,20,0.29
2013-3-22,52,41,30,41,30,24,98,67,39,30.44,0.00,14,3,14,0.08
2013-3-23,55,43,30,38,28,19,97,60,29,30.50,30.36,8,2,8,0.08
2013-3-24,61,48,33,36,30,26,96,54,32,30.36,30.18,12,3,12,0.00
2013-3-25,65,53,35,40,33,27,96,50,29,30.18,30.00,10,3,10,0.00
2013-3-26,65,55,42,45,39,34,93,59,34,30.12,30.03,9,2,9,0.00
2013-3-27,68,57,47,51,41,32,96,60,29,30.06,30.00,57,2,57,0.00
2013-3-28,66,55,0,53,44,0,96,69,36,30.27,30.12,11,2,11,0.00
2013-3-29,71,58,45,50,41,35,98,57,32,30.36,30.27,12,3,12,0.00
2013-3-30,71,60,36,49,39,35,98,49,32,30.33,30.12,17,5,17,0.00
2013-3-31,78,69,53,45,40,34,67,36,24,30.12,0.00,10,3,10,0.00
2013-4-1,42,42,42,40,40,40,92,92,92,29.32,29.32,2,2,4,0.00
2013-4-2,62,55,46,48,43,39,92,66,44,30.33,30.24,12,3,12,0.00
2013-4-3,68,53,40,48,42,38,97,70,37,30.30,30.03,6,2,6,0.00
2013-4-4,59,53,48,55,50,46,96,89,64,29.91,29.79,16,3,16,34.04
2013-4-5,61,52,47,54,48,43,98,87,63,30.06,29.91,14,3,14,0.41
2013-4-6,58,48,43,47,42,35,97,80,49,30.09,29.91,17,3,17,0.45
2013-4-7,54,45,0,46,39,0,94,80,58,29.79,29.32,17,3,17,0.25
2013-4-8,57,46,38,45,38,32,98,76,41,29.91,29.56,13,3,13,0.00
2013-4-9,57,40,34,45,35,32,98,86,45,29.97,29.88,10,1,13,0.00
2013-4-10,60,50,45,55,41,34,98,70,42,29.91,29.68,17,4,17,0.21
2013-4-11,64,46,34,45,34,26,98,66,30,29.97,29.82,17,3,17,0.00
2013-4-12,51,40,30,44,33,28,98,78,52,29.85,29.41,13,2,13,0.08
2013-4-13,54,39,34,40,34,28,98,82,46,29.68,29.47,17,3,17,0.41
2013-4-14,57,39,33,46,35,28,98,88,39,29.68,29.56,11,2,11,0.62
2013-4-15,60,37,30,44,30,26,98,82,31,29.82,29.59,23,2,23,0.62
2013-4-16,61,40,32,42,32,26,98,80,29,30.03,29.79,19,2,19,0.83
2013-4-17,66,38,30,43,31,27,96,80,34,30.12,30.00,10,2,10,0.83
2013-4-18,56,44,41,48,38,34,98,81,52,30.12,29.91,10,2,10,0.83
2013-4-19,61,49,48,53,47,39,98,91,49,29.91,29.71,15,3,15,0.21
2013-4-20,61,47,41,49,44,36,98,88,43,29.97,29.88,10,2,10,1.20
2013-4-21,63,45,41,46,41,30,98,89,35,29.97,29.88,15,1,15,1.20
2013-4-22,64,42,35,39,34,20,98,79,25,30.12,29.97,18,4,18,0.00
2013-4-23,66,41,28,37,27,18,98,65,23,30.06,29.79,18,3,18,0.00
2013-4-24,72,48,32,40,31,24,98,57,22,29.94,29.65,18,3,18,0.00
2013-4-25,78,57,35,44,36,30,98,52,22,29.79,29.65,12,3,12,0.00
2013-4-26,80,54,35,46,39,26,98,68,20,29.91,29.79,8,2,8,0.00
2013-4-27,62,44,36,49,38,34,98,83,37,29.91,29.82,12,2,12,1.20
2013-4-28,66,50,46,52,44,32,98,85,33,29.88,29.65,17,2,17,1.24
2013-4-29,60,47,39,48,39,25,98,76,32,29.82,29.62,24,4,24,1.24
2013-4-30,64,41,33,44,32,23,98,77,25,30.06,29.82,19,3,19,0.08
2013-5-1,68,49,28,41,29,21,98,55,23,30.18,30.06,13,4,13,0.00
2013-5-2,75,50,37,38,31,24,84,51,22,30.15,29.94,17,4,17,0.00
2013-5-3,75,61,48,42,34,28,59,38,23,30.00,29.82,20,7,20,0.00
2013-5-4,80,57,46,46,39,29,84,54,21,29.85,29.59,25,4,25,0.00
2013-5-5,85,68,44,44,37,30,89,38,18,29.59,29.35,18,5,18,0.00
2013-5-6,90,53,42,50,41,36,95,70,19,29.50,29.41,12,1,12,0.00
2013-5-7,78,57,45,49,46,42,98,73,32,29.62,29.47,12,2,12,0.00
2013-5-8,75,58,49,51,47,43,96,72,34,29.79,29.65,13,2,13,0.00
2013-5-9,77,53,43,51,46,40,98,82,28,29.88,29.71,15,3,15,0.00
2013-5-10,86,61,42,55,47,42,98,69,23,29.88,29.76,13,2,13,0.00
2013-5-11,91,60,51,55,49,45,94,73,22,29.88,29.68,12,2,12,0.00
2013-5-12,78,64,57,58,52,40,96,69,31,29.82,29.68,17,2,17,0.00
2013-5-13,68,56,44,56,52,32,98,89,39,29.85,29.68,23,2,90,0.04
2013-5-14,74,50,37,47,38,31,98,73,26,29.91,29.74,8,2,8,1.36
2013-5-15,57,43,37,48,40,37,98,90,48,29.79,29.71,6,1,6,0.00
2013-5-16,77,56,45,57,48,39,98,79,31,29.68,29.56,14,2,14,0.04
2013-5-17,70,52,44,53,48,37,98,89,33,29.76,29.65,13,1,13,0.21
2013-5-18,63,51,43,51,46,40,98,85,44,29.94,29.74,7,1,7,0.21
2013-5-19,73,53,49,51,45,36,98,78,30,30.09,29.94,12,3,12,0.00
2013-5-20,76,50,41,46,43,39,98,82,31,30.03,29.59,14,2,14,0.00
2013-5-21,62,47,43,46,43,33,98,87,40,29.59,29.47,18,2,18,0.33
2013-5-22,52,44,41,45,42,40,98,91,73,29.59,29.53,10,3,10,0.46
2013-5-23,50,43,38,48,42,37,98,97,89,29.65,29.59,11,1,11,1.07
2013-5-24,62,49,44,52,45,42,98,88,56,29.76,29.59,13,2,13,1.07
2013-5-25,0,0,0,0,0,0,0,0,100,29.76,29.68,10,2,10,0.13
2013-5-26,0,0,0,0,0,0,0,0,100,29.71,29.62,13,3,13,0.08
2013-5-27,0,0,0,0,0,0,0,0,100,29.68,29.38,14,2,14,0.37
2013-5-28,71,12,0,46,8,0,41,7,41,29.62,29.50,17,3,17,0.37
2013-5-29,68,16,0,50,11,0,88,15,41,29.68,29.35,14,2,14,0.50
2013-5-30,66,49,44,50,44,39,98,85,41,29.94,29.71,12,2,12,4.97
2013-5-31,74,56,42,56,42,35,98,64,30,30.03,29.94,10,2,10,0.00
2013-6-1,77,54,46,50,45,40,93,78,30,29.94,29.71,13,2,13,4.97
2013-6-2,74,56,49,51,46,39,94,73,33,29.79,29.71,17,3,17,0.00